Aeroporto :
LOGIN :

Iscrizione | Disclaimer

   EN    FR    IT 

 










Sommario :    VFR   VFR Marginale   IFR   IFR Intensivo   IFR Molto Intensivo
Visibilità : 
Base nubi : 
>= 8 km
>= 3000ft
5 / 8 km
1000 / 3000 ft
1500m / 5 km
500 / 1000 ft
800 / 1500m
200 / 500 ft
< 800m
< 200 ft
Simboli :   Temporali  Nebbia  Neve Forte  Precipitazioni Forti  Vento > 20 kt
SIGMETs :   Varie  Temporali  Ghiacco  Turbolenza  Onda orograficha  Ceneri Vulcaniche






- Altitudine del aeroporto : 939 ft


LKKB - Kbely Air Base

ULTIMO METAR :
  • 191300Z 05003KT 360V100 CAVOK 16/10 Q1012 NOSIG

METARs OBSOLETI :
  • 191200Z 05003KT 360V110 CAVOK 16/10 Q1012 NOSIG
  • 191100Z 05004KT 350V120 CAVOK 14/10 Q1012 NOSIG

TAF TAF LKKB
Valido dal 19 a 12 ore il 20 a 12 ore UTC


191100Z 1912/2012 17006KT CAVOK
BECMG 2000/2002 VRB02KT
TEMPO 2002/2007 5000 MIFG BR
PROB30
TEMPO 2004/2007 1500 BR BKN005



MetMap, La meteo Aeronautica in un colpo d'occhio ! - Copyright ORBIFLY Dicembre 2007 - Disclaimer

ORBIFLY MET'MAP TEAM :

Programmazione e sviluppo : Alexandra Zaïnal
Concezione e sviluppo : Baudouin d'Aumeries
Co-Programmazione e sviluppo : Marc-Olivier Méhu
Supporto tecnico e logistico : Manuel Goepfert
Aiuto per la traduzione : Arnaldo La Scala

Contatto : metmap@orbifly.com




FONTI E CREDITI :

   NOAA